sensor_id;sensor_type;location;lat;lon;timestamp;pressure;altitude;pressure_sealevel;temperature;humidity
49297;BME280;35163;48.878;18.040;2024-02-04T00:00:04;98755.63;;;9.89;67.19
49297;BME280;35163;48.878;18.040;2024-02-04T00:02:32;98753.09;;;9.87;67.11
49297;BME280;35163;48.878;18.040;2024-02-04T00:04:59;98743.59;;;9.88;67.11
49297;BME280;35163;48.878;18.040;2024-02-04T00:07:25;98736.75;;;9.87;67.28
49297;BME280;35163;48.878;18.040;2024-02-04T00:09:53;98736.75;;;9.87;67.48
49297;BME280;35163;48.878;18.040;2024-02-04T00:12:20;98736.75;;;9.87;67.24
49297;BME280;35163;48.878;18.040;2024-02-04T00:14:47;98733.31;;;9.86;67.65
49297;BME280;35163;48.878;18.040;2024-02-04T00:17:16;98733.25;;;9.88;67.56
49297;BME280;35163;48.878;18.040;2024-02-04T00:19:43;98730.72;;;9.86;67.79
49297;BME280;35163;48.878;18.040;2024-02-04T00:22:10;98726.41;;;9.87;67.56
49297;BME280;35163;48.878;18.040;2024-02-04T00:24:37;98730.69;;;9.88;67.23
49297;BME280;35163;48.878;18.040;2024-02-04T00:27:03;98722.09;;;9.87;68.06
49297;BME280;35163;48.878;18.040;2024-02-04T00:29:30;98727.28;;;9.87;68.06
49297;BME280;35163;48.878;18.040;2024-02-04T00:31:57;98722.09;;;9.87;68.12
49297;BME280;35163;48.878;18.040;2024-02-04T00:34:23;98724.69;;;9.87;68.05
49297;BME280;35163;48.878;18.040;2024-02-04T00:36:50;98727.28;;;9.87;68.66
49297;BME280;35163;48.878;18.040;2024-02-04T00:39:17;98729.84;;;9.85;68.66
49297;BME280;35163;48.878;18.040;2024-02-04T00:41:43;98735.03;;;9.85;68.25
49297;BME280;35163;48.878;18.040;2024-02-04T00:44:10;98735.03;;;9.85;68.81
49297;BME280;35163;48.878;18.040;2024-02-04T00:46:36;98742.78;;;9.85;68.82
49297;BME280;35163;48.878;18.040;2024-02-04T00:49:03;98718.69;;;9.85;68.81
49297;BME280;35163;48.878;18.040;2024-02-04T00:51:30;98716.06;;;9.87;68.76
49297;BME280;35163;48.878;18.040;2024-02-04T00:53:56;98721.28;;;9.85;68.62
49297;BME280;35163;48.878;18.040;2024-02-04T00:56:23;98735.84;;;9.88;68.37
49297;BME280;35163;48.878;18.040;2024-02-04T00:58:50;98737.59;;;9.87;68.73
49297;BME280;35163;48.878;18.040;2024-02-04T01:01:17;98746.22;;;9.86;68.90
49297;BME280;35163;48.878;18.040;2024-02-04T01:03:46;98735.00;;;9.87;68.59
49297;BME280;35163;48.878;18.040;2024-02-04T01:06:13;98728.94;;;9.88;68.30
49297;BME280;35163;48.878;18.040;2024-02-04T01:08:39;98726.38;;;9.88;68.34
49297;BME280;35163;48.878;18.040;2024-02-04T01:11:06;98714.38;;;9.85;68.31
49297;BME280;35163;48.878;18.040;2024-02-04T01:13:33;98713.47;;;9.88;68.40
49297;BME280;35163;48.878;18.040;2024-02-04T01:15:59;98709.16;;;9.89;68.28
49297;BME280;35163;48.878;18.040;2024-02-04T01:18:26;98695.38;;;9.88;68.59
49297;BME280;35163;48.878;18.040;2024-02-04T01:20:53;98689.31;;;9.89;68.39
49297;BME280;35163;48.878;18.040;2024-02-04T01:23:19;98691.84;;;9.91;68.11
49297;BME280;35163;48.878;18.040;2024-02-04T01:25:46;98693.56;;;9.92;68.92
49297;BME280;35163;48.878;18.040;2024-02-04T01:28:13;98699.59;;;9.91;68.17
49297;BME280;35163;48.878;18.040;2024-02-04T01:30:39;98695.25;;;9.93;68.45
49297;BME280;35163;48.878;18.040;2024-02-04T01:33:06;98697.00;;;9.92;67.97
49297;BME280;35163;48.878;18.040;2024-02-04T01:35:33;98684.84;;;9.96;67.92
49297;BME280;35163;48.878;18.040;2024-02-04T01:37:59;98684.88;;;9.94;68.23
49297;BME280;35163;48.878;18.040;2024-02-04T01:40:26;98677.09;;;9.98;68.26
49297;BME280;35163;48.878;18.040;2024-02-04T01:42:52;98680.50;;;9.98;67.75
49297;BME280;35163;48.878;18.040;2024-02-04T01:45:19;98673.59;;;9.99;68.14
49297;BME280;35163;48.878;18.040;2024-02-04T01:47:46;98679.63;;;9.99;68.24
49297;BME280;35163;48.878;18.040;2024-02-04T01:50:12;98686.50;;;9.99;68.31
49297;BME280;35163;48.878;18.040;2024-02-04T01:52:39;98688.16;;;10.01;68.32
49297;BME280;35163;48.878;18.040;2024-02-04T01:55:08;98684.72;;;10.02;68.06
49297;BME280;35163;48.878;18.040;2024-02-04T01:57:35;98674.38;;;10.02;67.84
49297;BME280;35163;48.878;18.040;2024-02-04T02:00:03;98670.91;;;10.03;68.17
49297;BME280;35163;48.878;18.040;2024-02-04T02:02:32;98676.91;;;10.04;67.66
49297;BME280;35163;48.878;18.040;2024-02-04T02:05:00;98688.94;;;10.05;67.88
49297;BME280;35163;48.878;18.040;2024-02-04T02:07:27;98689.03;;;10.02;67.79
49297;BME280;35163;48.878;18.040;2024-02-04T02:09:54;98670.84;;;10.05;67.29
49297;BME280;35163;48.878;18.040;2024-02-04T02:12:39;98657.06;;;10.06;67.70
49297;BME280;35163;48.878;18.040;2024-02-04T02:15:13;98649.31;;;10.06;67.20
49297;BME280;35163;48.878;18.040;2024-02-04T02:20:34;98674.25;;;10.07;66.87
49297;BME280;35163;48.878;18.040;2024-02-04T02:23:21;98663.91;;;10.07;67.18
49297;BME280;35163;48.878;18.040;2024-02-04T02:25:49;98668.22;;;10.06;67.58
49297;BME280;35163;48.878;18.040;2024-02-04T02:28:16;98663.97;;;10.05;67.22
49297;BME280;35163;48.878;18.040;2024-02-04T02:30:43;98659.66;;;10.06;67.76
49297;BME280;35163;48.878;18.040;2024-02-04T02:33:10;98663.91;;;10.07;67.44
49297;BME280;35163;48.878;18.040;2024-02-04T02:35:37;98660.47;;;10.06;67.48
49297;BME280;35163;48.878;18.040;2024-02-04T02:38:14;98657.84;;;10.08;67.62
49297;BME280;35163;48.878;18.040;2024-02-04T02:40:58;98656.16;;;10.07;67.56
49297;BME280;35163;48.878;18.040;2024-02-04T02:43:26;98657.88;;;10.06;66.77
49297;BME280;35163;48.878;18.040;2024-02-04T02:45:54;98656.16;;;10.07;67.34
49297;BME280;35163;48.878;18.040;2024-02-04T02:48:20;98652.69;;;10.08;66.92
49297;BME280;35163;48.878;18.040;2024-02-04T02:50:48;98642.34;;;10.08;67.45
49297;BME280;35163;48.878;18.040;2024-02-04T02:53:14;98646.69;;;10.07;67.22
49297;BME280;35163;48.878;18.040;2024-02-04T02:55:42;98656.13;;;10.08;66.92
49297;BME280;35163;48.878;18.040;2024-02-04T02:58:09;98643.22;;;10.08;67.29
49297;BME280;35163;48.878;18.040;2024-02-04T03:00:35;98644.06;;;10.09;66.97
49297;BME280;35163;48.878;18.040;2024-02-04T03:03:02;98637.19;;;10.08;67.02
49297;BME280;35163;48.878;18.040;2024-02-04T03:05:29;98626.84;;;10.08;67.14
49297;BME280;35163;48.878;18.040;2024-02-04T03:07:56;98629.44;;;10.08;67.16
49297;BME280;35163;48.878;18.040;2024-02-04T03:10:22;98641.47;;;10.09;67.17
49297;BME280;35163;48.878;18.040;2024-02-04T03:12:49;98635.47;;;10.08;66.55
49297;BME280;35163;48.878;18.040;2024-02-04T03:15:15;98628.59;;;10.07;67.14
49297;BME280;35163;48.878;18.040;2024-02-04T03:17:42;98632.88;;;10.08;67.23
49297;BME280;35163;48.878;18.040;2024-02-04T03:20:09;98641.53;;;10.07;66.64
49297;BME280;35163;48.878;18.040;2024-02-04T03:22:36;98653.53;;;10.08;66.52
49297;BME280;35163;48.878;18.040;2024-02-04T03:25:03;98654.41;;;10.09;66.89
49297;BME280;35163;48.878;18.040;2024-02-04T03:27:30;98665.59;;;10.09;66.85
49297;BME280;35163;48.878;18.040;2024-02-04T03:29:56;98663.78;;;10.12;66.33
49297;BME280;35163;48.878;18.040;2024-02-04T03:32:23;98662.09;;;10.11;66.38
49297;BME280;35163;48.878;18.040;2024-02-04T03:34:49;98666.34;;;10.13;66.87
49297;BME280;35163;48.878;18.040;2024-02-04T03:37:16;98657.78;;;10.11;66.19
49297;BME280;35163;48.878;18.040;2024-02-04T03:39:42;98668.09;;;10.13;66.90
49297;BME280;35163;48.878;18.040;2024-02-04T03:42:09;98662.91;;;10.13;66.55
49297;BME280;35163;48.878;18.040;2024-02-04T03:44:35;98656.84;;;10.14;66.64
49297;BME280;35163;48.878;18.040;2024-02-04T03:47:02;98647.38;;;10.14;66.70
49297;BME280;35163;48.878;18.040;2024-02-04T03:49:30;98644.78;;;10.14;66.57
49297;BME280;35163;48.878;18.040;2024-02-04T03:51:56;98646.53;;;10.14;66.28
49297;BME280;35163;48.878;18.040;2024-02-04T03:54:23;98636.19;;;10.14;66.75
49297;BME280;35163;48.878;18.040;2024-02-04T03:56:50;98641.31;;;10.15;66.35
49297;BME280;35163;48.878;18.040;2024-02-04T03:59:17;98631.88;;;10.14;66.49
49297;BME280;35163;48.878;18.040;2024-02-04T04:01:50;98624.94;;;10.15;66.39
49297;BME280;35163;48.878;18.040;2024-02-04T04:04:19;98630.97;;;10.15;66.63
49297;BME280;35163;48.878;18.040;2024-02-04T04:06:46;98618.91;;;10.16;66.79
49297;BME280;35163;48.878;18.040;2024-02-04T04:09:13;98630.09;;;10.16;66.48
49297;BME280;35163;48.878;18.040;2024-02-04T04:11:40;98635.22;;;10.18;66.49
49297;BME280;35163;48.878;18.040;2024-02-04T04:14:06;98636.97;;;10.17;66.61
49297;BME280;35163;48.878;18.040;2024-02-04T04:16:33;98636.97;;;10.17;66.48
49297;BME280;35163;48.878;18.040;2024-02-04T04:19:00;98635.28;;;10.16;66.26
49297;BME280;35163;48.878;18.040;2024-02-04T04:21:27;98629.19;;;10.17;66.53
49297;BME280;35163;48.878;18.040;2024-02-04T04:23:53;98626.66;;;10.16;66.41
49297;BME280;35163;48.878;18.040;2024-02-04T04:26:20;98626.63;;;10.17;66.36
49297;BME280;35163;48.878;18.040;2024-02-04T04:28:46;98628.31;;;10.18;66.74
49297;BME280;35163;48.878;18.040;2024-02-04T04:31:13;98619.69;;;10.19;66.84
49297;BME280;35163;48.878;18.040;2024-02-04T04:33:39;98617.97;;;10.18;67.57
49297;BME280;35163;48.878;18.040;2024-02-04T04:36:06;98617.13;;;10.18;67.86
49297;BME280;35163;48.878;18.040;2024-02-04T04:38:33;98605.94;;;10.17;67.60
49297;BME280;35163;48.878;18.040;2024-02-04T04:40:59;98612.81;;;10.18;68.09
49297;BME280;35163;48.878;18.040;2024-02-04T04:43:26;98605.94;;;10.17;68.28
49297;BME280;35163;48.878;18.040;2024-02-04T04:45:53;98611.13;;;10.17;68.59
49297;BME280;35163;48.878;18.040;2024-02-04T04:48:20;98607.72;;;10.15;68.70
49297;BME280;35163;48.878;18.040;2024-02-04T04:50:47;98617.19;;;10.16;68.32
49297;BME280;35163;48.878;18.040;2024-02-04T04:53:14;98612.88;;;10.15;68.69
49297;BME280;35163;48.878;18.040;2024-02-04T04:55:40;98618.06;;;10.15;68.19
49297;BME280;35163;48.878;18.040;2024-02-04T04:58:07;98614.66;;;10.13;68.00
49297;BME280;35163;48.878;18.040;2024-02-04T05:00:33;98607.75;;;10.14;68.14
49297;BME280;35163;48.878;18.040;2024-02-04T05:03:00;98603.44;;;10.14;67.53
49297;BME280;35163;48.878;18.040;2024-02-04T05:05:27;98603.41;;;10.16;67.96
49297;BME280;35163;48.878;18.040;2024-02-04T05:07:53;98618.06;;;10.15;67.61
49297;BME280;35163;48.878;18.040;2024-02-04T05:10:20;98614.63;;;10.15;67.83
49297;BME280;35163;48.878;18.040;2024-02-04T05:12:47;98616.28;;;10.17;67.21
49297;BME280;35163;48.878;18.040;2024-02-04T05:15:13;98622.31;;;10.18;67.34
49297;BME280;35163;48.878;18.040;2024-02-04T05:17:40;98623.09;;;10.20;67.11
49297;BME280;35163;48.878;18.040;2024-02-04T05:20:07;98627.44;;;10.19;67.25
49297;BME280;35163;48.878;18.040;2024-02-04T05:22:34;98639.44;;;10.20;66.66
49297;BME280;35163;48.878;18.040;2024-02-04T05:25:00;98641.19;;;10.20;66.75
49297;BME280;35163;48.878;18.040;2024-02-04T05:27:27;98631.69;;;10.20;66.70
49297;BME280;35163;48.878;18.040;2024-02-04T05:29:54;98632.50;;;10.23;66.84
49297;BME280;35163;48.878;18.040;2024-02-04T05:32:21;98633.41;;;10.21;66.66
49297;BME280;35163;48.878;18.040;2024-02-04T05:34:48;98630.84;;;10.21;67.07
49297;BME280;35163;48.878;18.040;2024-02-04T05:37:15;98632.50;;;10.23;66.95
49297;BME280;35163;48.878;18.040;2024-02-04T05:39:41;98629.03;;;10.24;66.60
49297;BME280;35163;48.878;18.040;2024-02-04T05:42:08;98629.88;;;10.24;66.96
49297;BME280;35163;48.878;18.040;2024-02-04T05:44:34;98631.63;;;10.24;67.09
49297;BME280;35163;48.878;18.040;2024-02-04T05:47:01;98630.75;;;10.25;66.85
49297;BME280;35163;48.878;18.040;2024-02-04T05:49:28;98627.25;;;10.26;66.57
49297;BME280;35163;48.878;18.040;2024-02-04T05:51:55;98634.16;;;10.25;67.03
49297;BME280;35163;48.878;18.040;2024-02-04T05:54:21;98630.75;;;10.25;66.90
49297;BME280;35163;48.878;18.040;2024-02-04T05:56:48;98626.41;;;10.25;67.09
49297;BME280;35163;48.878;18.040;2024-02-04T05:59:15;98623.81;;;10.25;66.89
49297;BME280;35163;48.878;18.040;2024-02-04T06:01:42;98633.28;;;10.26;67.54
49297;BME280;35163;48.878;18.040;2024-02-04T06:04:09;98636.75;;;10.25;67.88
49297;BME280;35163;48.878;18.040;2024-02-04T06:06:36;98638.41;;;10.28;68.16
49297;BME280;35163;48.878;18.040;2024-02-04T06:09:03;98634.16;;;10.25;68.00
49297;BME280;35163;48.878;18.040;2024-02-04T06:11:30;98648.75;;;10.28;68.26
49297;BME280;35163;48.878;18.040;2024-02-04T06:13:56;98643.56;;;10.28;67.72
49297;BME280;35163;48.878;18.040;2024-02-04T06:16:23;98644.44;;;10.28;68.21
49297;BME280;35163;48.878;18.040;2024-02-04T06:18:49;98657.34;;;10.28;68.37
49297;BME280;35163;48.878;18.040;2024-02-04T06:21:16;98659.94;;;10.27;68.53
49297;BME280;35163;48.878;18.040;2024-02-04T06:23:42;98659.09;;;10.28;68.53
49297;BME280;35163;48.878;18.040;2024-02-04T06:26:09;98666.84;;;10.28;69.22
49297;BME280;35163;48.878;18.040;2024-02-04T06:28:35;98672.81;;;10.30;68.70
49297;BME280;35163;48.878;18.040;2024-02-04T06:31:02;98680.53;;;10.31;69.09
49297;BME280;35163;48.878;18.040;2024-02-04T06:33:29;98682.25;;;10.31;69.00
49297;BME280;35163;48.878;18.040;2024-02-04T06:35:56;98689.94;;;10.34;69.50
49297;BME280;35163;48.878;18.040;2024-02-04T06:38:22;98691.63;;;10.35;69.33
49297;BME280;35163;48.878;18.040;2024-02-04T06:40:49;98691.69;;;10.33;69.11
49297;BME280;35163;48.878;18.040;2024-02-04T06:43:15;98689.09;;;10.33;69.71
49297;BME280;35163;48.878;18.040;2024-02-04T06:45:42;98688.25;;;10.33;69.80
49297;BME280;35163;48.878;18.040;2024-02-04T06:48:08;98685.63;;;10.35;69.42
49297;BME280;35163;48.878;18.040;2024-02-04T06:50:36;98681.31;;;10.35;69.41
49297;BME280;35163;48.878;18.040;2024-02-04T06:53:03;98683.03;;;10.35;69.31
49297;BME280;35163;48.878;18.040;2024-02-04T06:55:30;98684.75;;;10.34;69.77
49297;BME280;35163;48.878;18.040;2024-02-04T06:57:57;98676.13;;;10.35;69.70
49297;BME280;35163;48.878;18.040;2024-02-04T07:00:23;98665.78;;;10.35;68.94
49297;BME280;35163;48.878;18.040;2024-02-04T07:02:50;98680.44;;;10.35;69.32
49297;BME280;35163;48.878;18.040;2024-02-04T07:05:17;98664.94;;;10.35;69.25
49297;BME280;35163;48.878;18.040;2024-02-04T07:07:43;98672.66;;;10.36;68.96
49297;BME280;35163;48.878;18.040;2024-02-04T07:10:10;98675.28;;;10.35;68.55
49297;BME280;35163;48.878;18.040;2024-02-04T07:12:37;98685.56;;;10.36;69.20
49297;BME280;35163;48.878;18.040;2024-02-04T07:15:04;98677.81;;;10.36;68.82
49297;BME280;35163;48.878;18.040;2024-02-04T07:17:31;98676.91;;;10.37;68.79
49297;BME280;35163;48.878;18.040;2024-02-04T07:19:57;98676.03;;;10.38;68.55
49297;BME280;35163;48.878;18.040;2024-02-04T07:22:24;98667.38;;;10.39;68.25
49297;BME280;35163;48.878;18.040;2024-02-04T07:24:51;98673.38;;;10.41;68.38
49297;BME280;35163;48.878;18.040;2024-02-04T07:27:18;98670.78;;;10.41;68.87
49297;BME280;35163;48.878;18.040;2024-02-04T07:29:45;98684.53;;;10.43;68.60
49297;BME280;35163;48.878;18.040;2024-02-04T07:32:17;98669.84;;;10.44;69.59
49297;BME280;35163;48.878;18.040;2024-02-04T07:34:43;98687.13;;;10.43;69.58
49297;BME280;35163;48.878;18.040;2024-02-04T07:37:10;98699.19;;;10.43;69.74
49297;BME280;35163;48.878;18.040;2024-02-04T07:39:37;98701.72;;;10.44;69.92
49297;BME280;35163;48.878;18.040;2024-02-04T07:42:04;98698.28;;;10.44;69.91
49297;BME280;35163;48.878;18.040;2024-02-04T07:44:30;98689.66;;;10.45;69.80
49297;BME280;35163;48.878;18.040;2024-02-04T07:46:57;98691.34;;;10.46;69.84
49297;BME280;35163;48.878;18.040;2024-02-04T07:49:23;98689.59;;;10.48;69.78
49297;BME280;35163;48.878;18.040;2024-02-04T07:51:51;98698.22;;;10.49;68.73
49297;BME280;35163;48.878;18.040;2024-02-04T07:54:17;98690.41;;;10.50;69.20
49297;BME280;35163;48.878;18.040;2024-02-04T07:56:44;98673.94;;;10.53;68.93
49297;BME280;35163;48.878;18.040;2024-02-04T07:59:10;98670.50;;;10.54;68.34
49297;BME280;35163;48.878;18.040;2024-02-04T08:01:37;98658.41;;;10.54;68.30
49297;BME280;35163;48.878;18.040;2024-02-04T08:04:04;98668.69;;;10.56;68.39
49297;BME280;35163;48.878;18.040;2024-02-04T08:06:32;98661.75;;;10.58;68.22
49297;BME280;35163;48.878;18.040;2024-02-04T08:09:01;98659.97;;;10.60;67.48
49297;BME280;35163;48.878;18.040;2024-02-04T08:11:28;98652.97;;;10.64;67.38
49297;BME280;35163;48.878;18.040;2024-02-04T08:13:54;98650.34;;;10.65;68.00
49297;BME280;35163;48.878;18.040;2024-02-04T08:16:21;98657.22;;;10.66;67.58
49297;BME280;35163;48.878;18.040;2024-02-04T08:18:48;98645.09;;;10.68;67.30
49297;BME280;35163;48.878;18.040;2024-02-04T08:21:14;98648.50;;;10.71;67.23
49297;BME280;35163;48.878;18.040;2024-02-04T08:23:41;98652.75;;;10.72;67.39
49297;BME280;35163;48.878;18.040;2024-02-04T08:26:07;98653.59;;;10.72;67.14
49297;BME280;35163;48.878;18.040;2024-02-04T08:28:35;98673.44;;;10.72;67.36
49297;BME280;35163;48.878;18.040;2024-02-04T08:31:02;98663.03;;;10.75;67.21
49297;BME280;35163;48.878;18.040;2024-02-04T08:33:29;98664.75;;;10.74;66.88
49297;BME280;35163;48.878;18.040;2024-02-04T08:35:56;98663.88;;;10.75;66.49
49297;BME280;35163;48.878;18.040;2024-02-04T08:38:22;98660.41;;;10.76;66.30
49297;BME280;35163;48.878;18.040;2024-02-04T08:40:49;98664.63;;;10.79;66.91
49297;BME280;35163;48.878;18.040;2024-02-04T08:43:16;98656.81;;;10.80;66.41
49297;BME280;35163;48.878;18.040;2024-02-04T08:45:42;98669.72;;;10.82;65.74
49297;BME280;35163;48.878;18.040;2024-02-04T08:48:09;98667.06;;;10.84;65.73
49297;BME280;35163;48.878;18.040;2024-02-04T08:50:36;98667.88;;;10.86;66.00
49297;BME280;35163;48.878;18.040;2024-02-04T08:53:03;98686.81;;;10.88;66.12
49297;BME280;35163;48.878;18.040;2024-02-04T08:55:29;98694.56;;;10.88;65.77
49297;BME280;35163;48.878;18.040;2024-02-04T08:57:56;98691.03;;;10.90;66.46
49297;BME280;35163;48.878;18.040;2024-02-04T09:00:23;98678.94;;;10.91;65.93
49297;BME280;35163;48.878;18.040;2024-02-04T09:02:49;98667.69;;;10.93;66.27
49297;BME280;35163;48.878;18.040;2024-02-04T09:05:16;98676.22;;;10.96;65.83
49297;BME280;35163;48.878;18.040;2024-02-04T09:07:44;98669.22;;;10.99;64.46
49297;BME280;35163;48.878;18.040;2024-02-04T09:10:11;98662.22;;;11.03;64.41
49297;BME280;35163;48.878;18.040;2024-02-04T09:12:38;98654.41;;;11.04;63.56
49297;BME280;35163;48.878;18.040;2024-02-04T09:15:06;98669.81;;;11.09;62.46
49297;BME280;35163;48.878;18.040;2024-02-04T09:17:32;98657.63;;;11.13;62.64
49297;BME280;35163;48.878;18.040;2024-02-04T09:20:00;98677.41;;;11.15;62.86
49297;BME280;35163;48.878;18.040;2024-02-04T09:22:26;98672.13;;;11.18;63.54
49297;BME280;35163;48.878;18.040;2024-02-04T09:24:54;98649.53;;;11.24;63.44
49297;BME280;35163;48.878;18.040;2024-02-04T09:27:20;98663.19;;;11.29;62.89
49297;BME280;35163;48.878;18.040;2024-02-04T09:29:47;98662.22;;;11.32;62.81
49297;BME280;35163;48.878;18.040;2024-02-04T09:32:14;98663.91;;;11.34;62.03
49297;BME280;35163;48.878;18.040;2024-02-04T09:34:44;98674.09;;;11.39;61.50
49297;BME280;35163;48.878;18.040;2024-02-04T09:37:11;98675.72;;;11.43;62.07
49297;BME280;35163;48.878;18.040;2024-02-04T09:39:38;98687.69;;;11.46;61.85
49297;BME280;35163;48.878;18.040;2024-02-04T09:42:05;98678.16;;;11.48;60.24
49297;BME280;35163;48.878;18.040;2024-02-04T09:44:32;98687.59;;;11.50;60.65
49297;BME280;35163;48.878;18.040;2024-02-04T09:46:59;98674.47;;;11.55;60.28
49297;BME280;35163;48.878;18.040;2024-02-04T09:49:27;98672.69;;;11.57;59.95
49297;BME280;35163;48.878;18.040;2024-02-04T09:51:59;98676.81;;;11.63;60.21
49297;BME280;35163;48.878;18.040;2024-02-04T09:54:31;98668.00;;;11.69;60.50
49297;BME280;35163;48.878;18.040;2024-02-04T09:57:00;98671.31;;;11.74;60.37
49297;BME280;35163;48.878;18.040;2024-02-04T09:59:27;98670.28;;;11.78;60.49
49297;BME280;35163;48.878;18.040;2024-02-04T10:01:54;98671.00;;;11.83;60.76
49297;BME280;35163;48.878;18.040;2024-02-04T10:04:22;98668.28;;;11.88;60.49
49297;BME280;35163;48.878;18.040;2024-02-04T10:06:48;98656.00;;;11.93;61.19
49297;BME280;35163;48.878;18.040;2024-02-04T10:09:15;98659.31;;;11.97;60.96
49297;BME280;35163;48.878;18.040;2024-02-04T10:11:42;98649.69;;;12.00;60.34
49297;BME280;35163;48.878;18.040;2024-02-04T10:14:09;98649.56;;;12.05;60.01
49297;BME280;35163;48.878;18.040;2024-02-04T10:16:37;98638.22;;;12.09;60.25
49297;BME280;35163;48.878;18.040;2024-02-04T10:19:03;98642.50;;;12.10;60.10
49297;BME280;35163;48.878;18.040;2024-02-04T10:21:30;98633.81;;;12.11;59.90
49297;BME280;35163;48.878;18.040;2024-02-04T10:23:57;98634.63;;;12.13;60.65
49297;BME280;35163;48.878;18.040;2024-02-04T10:26:29;98613.84;;;12.15;60.62
49297;BME280;35163;48.878;18.040;2024-02-04T10:29:00;98621.63;;;12.15;60.89
49297;BME280;35163;48.878;18.040;2024-02-04T10:31:27;98631.13;;;12.14;60.59
49297;BME280;35163;48.878;18.040;2024-02-04T10:33:54;98620.75;;;12.14;60.13
49297;BME280;35163;48.878;18.040;2024-02-04T10:36:21;98622.47;;;12.15;60.36
49297;BME280;35163;48.878;18.040;2024-02-04T10:38:48;98620.75;;;12.14;60.27
49297;BME280;35163;48.878;18.040;2024-02-04T10:41:16;98612.09;;;12.15;60.01
49297;BME280;35163;48.878;18.040;2024-02-04T10:43:44;98615.50;;;12.16;60.44
49297;BME280;35163;48.878;18.040;2024-02-04T10:46:22;98613.78;;;12.17;59.89
49297;BME280;35163;48.878;18.040;2024-02-04T10:48:55;98606.00;;;12.17;60.77
49297;BME280;35163;48.878;18.040;2024-02-04T10:51:25;98589.53;;;12.18;60.92
49297;BME280;35163;48.878;18.040;2024-02-04T10:53:55;98599.09;;;12.17;61.29
49297;BME280;35163;48.878;18.040;2024-02-04T10:56:42;98598.22;;;12.17;61.10
49297;BME280;35163;48.878;18.040;2024-02-04T10:59:10;98584.47;;;12.14;61.12
49297;BME280;35163;48.878;18.040;2024-02-04T11:01:39;98594.78;;;12.16;61.25
49297;BME280;35163;48.878;18.040;2024-02-04T11:04:06;98578.44;;;12.14;61.78
49297;BME280;35163;48.878;18.040;2024-02-04T11:06:35;98570.72;;;12.12;61.77
49297;BME280;35163;48.878;18.040;2024-02-04T11:09:04;98571.69;;;12.10;62.23
49297;BME280;35163;48.878;18.040;2024-02-04T11:11:32;98556.13;;;12.10;62.22
49297;BME280;35163;48.878;18.040;2024-02-04T11:14:01;98561.34;;;12.08;62.18
49297;BME280;35163;48.878;18.040;2024-02-04T11:25:10;98553.56;;;12.08;61.14
49297;BME280;35163;48.878;18.040;2024-02-04T11:27:39;98559.59;;;12.09;61.17
49297;BME280;35163;48.878;18.040;2024-02-04T11:30:07;98555.22;;;12.11;61.02
49297;BME280;35163;48.878;18.040;2024-02-04T11:32:36;98551.69;;;12.13;61.48
49297;BME280;35163;48.878;18.040;2024-02-04T11:35:03;98550.84;;;12.13;61.30
49297;BME280;35163;48.878;18.040;2024-02-04T11:37:34;98549.91;;;12.14;60.75
49297;BME280;35163;48.878;18.040;2024-02-04T11:40:03;98561.94;;;12.17;60.76
49297;BME280;35163;48.878;18.040;2024-02-04T11:42:31;98559.22;;;12.20;60.34
49297;BME280;35163;48.878;18.040;2024-02-04T11:45:09;98564.34;;;12.21;60.16
49297;BME280;35163;48.878;18.040;2024-02-04T11:47:37;98560.03;;;12.22;60.58
49297;BME280;35163;48.878;18.040;2024-02-04T11:50:04;98553.06;;;12.24;60.65
49297;BME280;35163;48.878;18.040;2024-02-04T11:52:31;98546.03;;;12.26;60.18
49297;BME280;35163;48.878;18.040;2024-02-04T11:54:58;98534.72;;;12.29;59.93
49297;BME280;35163;48.878;18.040;2024-02-04T11:57:26;98537.13;;;12.33;60.41
49297;BME280;35163;48.878;18.040;2024-02-04T11:59:53;98538.72;;;12.37;60.69
49297;BME280;35163;48.878;18.040;2024-02-04T12:02:21;98542.88;;;12.42;60.04
49297;BME280;35163;48.878;18.040;2024-02-04T12:04:48;98547.13;;;12.44;59.80
49297;BME280;35163;48.878;18.040;2024-02-04T12:07:15;98553.09;;;12.46;59.52
49297;BME280;35163;48.878;18.040;2024-02-04T12:09:43;98545.28;;;12.48;59.52
49297;BME280;35163;48.878;18.040;2024-02-04T12:12:10;98539.09;;;12.50;59.31
49297;BME280;35163;48.878;18.040;2024-02-04T12:14:39;98531.25;;;12.52;58.87
49297;BME280;35163;48.878;18.040;2024-02-04T12:17:09;98532.97;;;12.53;58.54
49297;BME280;35163;48.878;18.040;2024-02-04T12:19:37;98527.66;;;12.56;58.53
49297;BME280;35163;48.878;18.040;2024-02-04T12:22:09;98518.19;;;12.55;58.71
49297;BME280;35163;48.878;18.040;2024-02-04T12:24:36;98512.97;;;12.57;59.01
49297;BME280;35163;48.878;18.040;2024-02-04T12:27:04;98520.69;;;12.58;59.25
49297;BME280;35163;48.878;18.040;2024-02-04T12:29:32;98506.78;;;12.59;59.70
49297;BME280;35163;48.878;18.040;2024-02-04T12:32:02;98489.44;;;12.61;59.96
49297;BME280;35163;48.878;18.040;2024-02-04T12:34:30;98494.50;;;12.64;59.67
49297;BME280;35163;48.878;18.040;2024-02-04T12:36:59;98481.41;;;12.68;59.47
49297;BME280;35163;48.878;18.040;2024-02-04T12:39:27;98485.69;;;12.69;58.67
49297;BME280;35163;48.878;18.040;2024-02-04T12:41:54;98460.50;;;12.71;59.38
49297;BME280;35163;48.878;18.040;2024-02-04T12:44:21;98468.22;;;12.74;58.49
49297;BME280;35163;48.878;18.040;2024-02-04T12:46:51;98459.50;;;12.75;57.99
49297;BME280;35163;48.878;18.040;2024-02-04T12:49:20;98465.47;;;12.77;58.26
49297;BME280;35163;48.878;18.040;2024-02-04T12:51:50;98451.47;;;12.81;57.50
49297;BME280;35163;48.878;18.040;2024-02-04T12:54:21;98435.84;;;12.83;57.54
49297;BME280;35163;48.878;18.040;2024-02-04T12:56:53;98446.13;;;12.86;56.75
49297;BME280;35163;48.878;18.040;2024-02-04T13:01:57;98449.41;;;12.90;55.61
49297;BME280;35163;48.878;18.040;2024-02-04T13:04:24;98436.44;;;12.90;55.01
49297;BME280;35163;48.878;18.040;2024-02-04T13:06:51;98436.31;;;12.93;55.79